createdAt,value
2017-10-16T00:00:01.330Z,1017.89
2017-10-16T00:01:10.495Z,1017.88
2017-10-16T00:02:19.334Z,1017.86
2017-10-16T00:03:28.167Z,1017.9
2017-10-16T00:04:37.007Z,1017.86
2017-10-16T00:05:45.846Z,1017.86
2017-10-16T00:06:54.689Z,1017.88
2017-10-16T00:08:03.520Z,1017.87
2017-10-16T00:09:12.361Z,1017.78
2017-10-16T00:10:21.199Z,1017.85
2017-10-16T00:11:30.033Z,1017.84
2017-10-16T00:12:38.867Z,1017.85
2017-10-16T00:13:47.701Z,1017.82
2017-10-16T00:14:56.543Z,1017.83
2017-10-16T00:16:05.387Z,1017.82
2017-10-16T00:17:14.565Z,1017.85
2017-10-16T00:18:23.402Z,1017.86
2017-10-16T00:19:32.244Z,1017.79
2017-10-16T00:20:41.080Z,1017.79
2017-10-16T00:21:49.914Z,1017.76
2017-10-16T00:22:58.756Z,1017.76
2017-10-16T00:24:07.593Z,1017.75
2017-10-16T00:25:16.428Z,1017.74
2017-10-16T00:26:25.263Z,1017.75
2017-10-16T00:27:34.102Z,1017.73
2017-10-16T00:28:42.942Z,1017.73
2017-10-16T00:29:51.779Z,1017.75
2017-10-16T00:31:00.614Z,1017.72
2017-10-16T00:32:09.445Z,1017.74
2017-10-16T00:33:18.288Z,1017.68
2017-10-16T00:34:27.125Z,1017.69
2017-10-16T00:35:35.959Z,1017.7
2017-10-16T00:36:44.798Z,1017.67
2017-10-16T00:37:53.637Z,1017.65
2017-10-16T00:39:02.478Z,1017.69
2017-10-16T00:40:11.309Z,1017.72
2017-10-16T00:41:20.144Z,1017.66
2017-10-16T00:42:28.981Z,1017.67
2017-10-16T00:43:37.820Z,1017.64
2017-10-16T00:44:46.662Z,1017.71
2017-10-16T00:45:55.496Z,1017.64
2017-10-16T00:47:04.334Z,1017.67
2017-10-16T00:48:13.170Z,1017.66
2017-10-16T00:49:22.007Z,1017.66
2017-10-16T00:50:30.847Z,1017.67
2017-10-16T00:51:39.683Z,1017.63
2017-10-16T00:52:48.519Z,1017.64
2017-10-16T00:53:57.358Z,1017.64
2017-10-16T00:55:06.195Z,1017.67
2017-10-16T00:56:15.028Z,1017.65
2017-10-16T00:57:23.867Z,1017.64
2017-10-16T00:58:33.046Z,1017.67
2017-10-16T00:59:41.880Z,1017.65
2017-10-16T01:00:50.722Z,1017.66
2017-10-16T01:01:59.558Z,1017.66
2017-10-16T01:03:08.399Z,1017.62
2017-10-16T01:04:17.233Z,1017.61
2017-10-16T01:05:26.075Z,1017.61
2017-10-16T01:06:34.910Z,1017.63
2017-10-16T01:07:43.747Z,1017.61
2017-10-16T01:08:52.586Z,1017.57
2017-10-16T01:10:01.423Z,1017.5
2017-10-16T01:11:10.262Z,1017.52
2017-10-16T01:12:19.106Z,1017.51
2017-10-16T01:13:27.941Z,1017.51
2017-10-16T01:14:36.793Z,1017.47
2017-10-16T01:15:45.627Z,1017.49
2017-10-16T01:16:54.466Z,1017.47
2017-10-16T01:18:03.301Z,1017.49
2017-10-16T01:19:12.154Z,1017.46
2017-10-16T01:20:21.325Z,1017.48
2017-10-16T01:21:30.159Z,1017.46
2017-10-16T01:22:38.996Z,1017.46
2017-10-16T01:23:47.834Z,1017.44
2017-10-16T01:24:56.672Z,1017.43
2017-10-16T01:26:05.509Z,1017.4
2017-10-16T01:27:14.343Z,1017.39
2017-10-16T01:28:23.179Z,1017.36
2017-10-16T01:29:32.019Z,1017.37
2017-10-16T01:30:40.858Z,1017.35
2017-10-16T01:31:49.690Z,1017.29
2017-10-16T01:32:58.530Z,1017.36
2017-10-16T01:34:07.362Z,1017.33
2017-10-16T01:35:16.199Z,1017.34
2017-10-16T01:36:25.037Z,1017.36
2017-10-16T01:37:33.875Z,1017.35
2017-10-16T01:38:42.710Z,1017.34
2017-10-16T01:39:51.551Z,1017.37
2017-10-16T01:41:00.384Z,1017.34
2017-10-16T01:42:09.218Z,1017.35
2017-10-16T01:43:18.054Z,1017.36
2017-10-16T01:44:26.896Z,1017.34
2017-10-16T01:45:35.736Z,1017.35
2017-10-16T01:46:44.577Z,1017.37
2017-10-16T01:47:53.413Z,1017.35
2017-10-16T01:49:02.247Z,1017.4
2017-10-16T01:50:11.091Z,1017.37
2017-10-16T01:51:19.928Z,1017.38
2017-10-16T01:52:28.763Z,1017.36
2017-10-16T01:53:37.607Z,1017.33
2017-10-16T01:54:46.441Z,1017.37
2017-10-16T01:55:55.280Z,1017.36
2017-10-16T01:57:04.116Z,1017.36
2017-10-16T01:58:12.958Z,1017.34
2017-10-16T01:59:21.791Z,1017.33
2017-10-16T02:00:30.631Z,1017.32
2017-10-16T02:01:39.467Z,1017.32
2017-10-16T02:02:48.316Z,1017.36
2017-10-16T02:03:57.147Z,1017.36
2017-10-16T02:05:05.982Z,1017.33
2017-10-16T02:06:15.156Z,1017.36
2017-10-16T02:07:23.992Z,1017.37
2017-10-16T02:08:32.826Z,1017.36
2017-10-16T02:09:41.658Z,1017.36
2017-10-16T02:10:50.498Z,1017.34
2017-10-16T02:11:59.336Z,1017.39
2017-10-16T02:13:08.168Z,1017.38
2017-10-16T02:14:17.010Z,1017.4
2017-10-16T02:15:25.848Z,1017.38
2017-10-16T02:16:34.684Z,1017.41
2017-10-16T02:17:43.518Z,1017.42
2017-10-16T02:18:52.353Z,1017.36
2017-10-16T02:20:01.193Z,1017.38
2017-10-16T02:21:10.025Z,1017.33
2017-10-16T02:22:18.864Z,1017.33
2017-10-16T02:23:27.701Z,1017.31
2017-10-16T02:24:36.536Z,1017.33
2017-10-16T02:25:45.375Z,1017.33
2017-10-16T02:26:54.551Z,1017.37
2017-10-16T02:28:03.388Z,1017.35
2017-10-16T02:29:12.220Z,1017.32
2017-10-16T02:30:21.058Z,1017.31
2017-10-16T02:31:29.896Z,1017.27
2017-10-16T02:32:38.737Z,1017.32
2017-10-16T02:33:47.573Z,1017.32
2017-10-16T02:34:56.412Z,1017.3
2017-10-16T02:36:05.243Z,1017.31
2017-10-16T02:37:14.077Z,1017.3
2017-10-16T02:38:22.913Z,1017.31
2017-10-16T02:39:31.752Z,1017.3
2017-10-16T02:40:40.589Z,1017.33
2017-10-16T02:41:49.764Z,1017.35
2017-10-16T02:42:58.604Z,1017.32
2017-10-16T02:44:07.465Z,1017.4
2017-10-16T02:45:16.312Z,1017.36
2017-10-16T02:46:25.483Z,1017.36
2017-10-16T02:47:34.327Z,1017.37
2017-10-16T02:48:43.161Z,1017.38
2017-10-16T02:49:51.995Z,1017.38
2017-10-16T02:51:00.839Z,1017.34
2017-10-16T02:52:09.665Z,1017.36
2017-10-16T02:53:18.504Z,1017.36
2017-10-16T02:54:27.341Z,1017.36
2017-10-16T02:55:36.179Z,1017.34
2017-10-16T02:56:45.350Z,1017.34
2017-10-16T02:57:54.186Z,1017.33
2017-10-16T02:59:03.026Z,1017.36
2017-10-16T03:00:11.861Z,1017.36
2017-10-16T03:01:20.693Z,1017.35
2017-10-16T03:02:29.529Z,1017.39
2017-10-16T03:03:38.365Z,1017.39
2017-10-16T03:04:47.204Z,1017.39
2017-10-16T03:05:56.036Z,1017.42
2017-10-16T03:07:05.211Z,1017.35
2017-10-16T03:08:14.043Z,1017.35
2017-10-16T03:09:22.891Z,1017.36
2017-10-16T03:10:31.720Z,1017.38
2017-10-16T03:11:40.555Z,1017.37
2017-10-16T03:12:49.393Z,1017.34
2017-10-16T03:13:58.232Z,1017.38
2017-10-16T03:15:07.070Z,1017.42
2017-10-16T03:16:15.907Z,1017.34
2017-10-16T03:17:24.750Z,1017.39
2017-10-16T03:18:33.581Z,1017.34
2017-10-16T03:19:42.417Z,1017.35
2017-10-16T03:20:51.256Z,1017.34
2017-10-16T03:22:00.089Z,1017.37
2017-10-16T03:23:08.927Z,1017.37
2017-10-16T03:24:17.754Z,1017.38
2017-10-16T03:25:26.591Z,1017.35
2017-10-16T03:26:35.774Z,1017.35
2017-10-16T03:27:44.609Z,1017.35
2017-10-16T03:28:53.444Z,1017.35
2017-10-16T03:30:02.282Z,1017.38
2017-10-16T03:31:11.118Z,1017.39
2017-10-16T03:32:19.953Z,1017.37
2017-10-16T03:33:28.789Z,1017.35
2017-10-16T03:34:37.629Z,1017.31
2017-10-16T03:35:46.464Z,1017.3
2017-10-16T03:36:55.304Z,1017.32
2017-10-16T03:38:04.136Z,1017.36
2017-10-16T03:39:12.970Z,1017.35
2017-10-16T03:40:21.803Z,1017.34
2017-10-16T03:41:30.694Z,1017.33
2017-10-16T03:42:39.521Z,1017.35
2017-10-16T03:43:48.357Z,1017.34
2017-10-16T03:44:57.187Z,1017.36
2017-10-16T03:46:06.020Z,1017.36
2017-10-16T03:47:14.859Z,1017.37
2017-10-16T03:48:23.692Z,1017.32
2017-10-16T03:49:32.530Z,1017.33
2017-10-16T03:50:41.366Z,1017.28
2017-10-16T03:51:50.202Z,1017.27
2017-10-16T03:52:59.034Z,1017.26
2017-10-16T03:54:08.231Z,1017.26
2017-10-16T03:55:17.071Z,1017.25
2017-10-16T03:56:26.244Z,1017.25
2017-10-16T03:57:35.079Z,1017.25
2017-10-16T03:58:43.917Z,1017.23
2017-10-16T03:59:52.757Z,1017.25
2017-10-16T04:01:01.590Z,1017.24
2017-10-16T04:02:10.430Z,1017.23
2017-10-16T04:03:19.268Z,1017.24
2017-10-16T04:04:28.102Z,1017.23
2017-10-16T04:05:36.937Z,1017.25
2017-10-16T04:06:45.774Z,1017.23
2017-10-16T04:07:54.614Z,1017.24
2017-10-16T04:09:03.450Z,1017.25
2017-10-16T04:10:12.282Z,1017.26
2017-10-16T04:11:21.114Z,1017.29
2017-10-16T04:12:30.288Z,1017.31
2017-10-16T04:13:39.120Z,1017.3
2017-10-16T04:14:47.953Z,1017.28
2017-10-16T04:15:56.792Z,1017.25
2017-10-16T04:17:05.623Z,1017.25
2017-10-16T04:18:14.463Z,1017.26
2017-10-16T04:19:23.303Z,1017.25
2017-10-16T04:20:32.136Z,1017.23
2017-10-16T04:21:40.974Z,1017.27
2017-10-16T04:22:49.804Z,1017.28
2017-10-16T04:23:58.643Z,1017.28
2017-10-16T04:25:07.476Z,1017.26
2017-10-16T04:26:16.326Z,1017.27
2017-10-16T04:27:25.157Z,1017.3
2017-10-16T04:28:33.994Z,1017.3
2017-10-16T04:29:42.832Z,1017.27
2017-10-16T04:30:51.665Z,1017.28
2017-10-16T04:32:00.501Z,1017.31
2017-10-16T04:33:09.338Z,1017.27
2017-10-16T04:34:18.508Z,1017.29
2017-10-16T04:35:27.346Z,1017.27
2017-10-16T04:36:36.176Z,1017.25
2017-10-16T04:37:45.013Z,1017.27
2017-10-16T04:38:53.850Z,1017.28
2017-10-16T04:40:03.022Z,1017.24
2017-10-16T04:41:11.865Z,1017.22
2017-10-16T04:42:21.039Z,1017.22
2017-10-16T04:43:29.872Z,1017.2
2017-10-16T04:44:38.710Z,1017.24
2017-10-16T04:45:47.549Z,1017.19
2017-10-16T04:46:56.382Z,1017.21
2017-10-16T04:48:05.215Z,1017.25
2017-10-16T04:49:14.052Z,1017.21
2017-10-16T04:50:22.887Z,1017.24
2017-10-16T04:51:31.727Z,1017.29
2017-10-16T04:52:40.568Z,1017.26
2017-10-16T04:53:49.397Z,1017.26
2017-10-16T04:54:58.227Z,1017.27
2017-10-16T04:56:07.403Z,1017.28
2017-10-16T04:57:16.263Z,1017.28
2017-10-16T04:58:25.073Z,1017.27
2017-10-16T04:59:33.905Z,1017.25
2017-10-16T05:00:43.082Z,1017.23
2017-10-16T05:01:51.919Z,1017.21
2017-10-16T05:03:00.757Z,1017.2
2017-10-16T05:04:09.597Z,1017.19
2017-10-16T05:05:18.430Z,1017.22
2017-10-16T05:06:27.605Z,1017.2
2017-10-16T05:07:36.442Z,1017.23
2017-10-16T05:08:45.285Z,1017.22
2017-10-16T05:09:54.111Z,1017.18
2017-10-16T05:11:02.948Z,1017.25
2017-10-16T05:12:11.784Z,1017.24
2017-10-16T05:13:20.626Z,1017.26
2017-10-16T05:14:29.462Z,1017.21
2017-10-16T05:15:38.292Z,1017.27
2017-10-16T05:16:47.129Z,1017.22
2017-10-16T05:17:55.965Z,1017.23
2017-10-16T05:19:04.801Z,1017.24
2017-10-16T05:20:13.639Z,1017.27
2017-10-16T05:21:22.473Z,1017.28
2017-10-16T05:22:31.308Z,1017.29
2017-10-16T05:23:40.144Z,1017.27
2017-10-16T05:24:48.991Z,1017.24
2017-10-16T05:25:57.824Z,1017.28
2017-10-16T05:27:06.663Z,1017.27
2017-10-16T05:28:15.496Z,1017.26
2017-10-16T05:29:24.327Z,1017.29
2017-10-16T05:30:33.165Z,1017.31
2017-10-16T05:31:42.004Z,1017.28
2017-10-16T05:32:50.842Z,1017.3
2017-10-16T05:33:59.678Z,1017.33
2017-10-16T05:35:08.512Z,1017.31
2017-10-16T05:36:17.349Z,1017.31
2017-10-16T05:37:26.184Z,1017.37
2017-10-16T05:38:35.019Z,1017.39
2017-10-16T05:39:43.859Z,1017.34
2017-10-16T05:40:52.695Z,1017.38
2017-10-16T05:42:01.531Z,1017.33
2017-10-16T05:43:10.360Z,1017.36
2017-10-16T05:44:19.195Z,1017.35
2017-10-16T05:45:28.035Z,1017.4
2017-10-16T05:46:36.866Z,1017.4
2017-10-16T05:47:45.695Z,1017.38
2017-10-16T05:48:54.537Z,1017.41
2017-10-16T05:50:03.371Z,1017.39
2017-10-16T05:51:12.214Z,1017.37
2017-10-16T05:52:21.046Z,1017.4
2017-10-16T05:53:29.883Z,1017.38
2017-10-16T05:54:38.713Z,1017.4
2017-10-16T05:55:47.549Z,1017.4
2017-10-16T05:56:56.381Z,1017.39
2017-10-16T05:58:05.222Z,1017.38
2017-10-16T05:59:14.063Z,1017.39
2017-10-16T06:00:22.892Z,1017.39
2017-10-16T06:01:32.065Z,1017.42
2017-10-16T06:02:40.901Z,1017.44
2017-10-16T06:03:49.737Z,1017.44
2017-10-16T06:04:58.571Z,1017.47
2017-10-16T06:06:07.407Z,1017.45
2017-10-16T06:07:16.237Z,1017.46
2017-10-16T06:08:25.075Z,1017.46
2017-10-16T06:09:33.914Z,1017.44
2017-10-16T06:10:43.078Z,1017.47
2017-10-16T06:11:51.915Z,1017.45
2017-10-16T06:13:00.747Z,1017.49
2017-10-16T06:14:09.587Z,1017.47
2017-10-16T06:15:18.420Z,1017.45
2017-10-16T06:16:27.293Z,1017.42
2017-10-16T06:17:36.093Z,1017.43
2017-10-16T06:18:44.923Z,1017.42
2017-10-16T06:19:54.096Z,1017.45
2017-10-16T06:21:02.926Z,1017.47
2017-10-16T06:22:11.762Z,1017.48
2017-10-16T06:23:20.602Z,1017.46
2017-10-16T06:24:29.436Z,1017.52
2017-10-16T06:25:38.266Z,1017.51
2017-10-16T06:26:47.104Z,1017.57
2017-10-16T06:27:55.940Z,1017.6
2017-10-16T06:29:04.776Z,1017.58
2017-10-16T06:30:13.614Z,1017.63
2017-10-16T06:31:22.445Z,1017.61
2017-10-16T06:32:31.283Z,1017.61
2017-10-16T06:33:40.116Z,1017.63
2017-10-16T06:34:49.297Z,1017.64
2017-10-16T06:35:58.135Z,1017.64
2017-10-16T06:37:06.968Z,1017.66
2017-10-16T06:38:15.802Z,1017.65
2017-10-16T06:39:24.644Z,1017.66
2017-10-16T06:40:33.476Z,1017.68
2017-10-16T06:41:42.334Z,1017.68
2017-10-16T06:42:51.158Z,1017.67
2017-10-16T06:43:59.991Z,1017.7
2017-10-16T06:45:08.823Z,1017.67
2017-10-16T06:46:18.012Z,1017.67
2017-10-16T06:47:26.846Z,1017.68
2017-10-16T06:48:36.018Z,1017.68
2017-10-16T06:49:44.850Z,1017.63
2017-10-16T06:50:53.680Z,1017.67
2017-10-16T06:52:02.515Z,1017.65
2017-10-16T06:53:11.356Z,1017.58
2017-10-16T06:54:20.530Z,1017.58
2017-10-16T06:55:29.367Z,1017.63
2017-10-16T06:56:38.204Z,1017.62
2017-10-16T06:57:47.037Z,1017.62
2017-10-16T06:58:55.878Z,1017.61
2017-10-16T07:00:04.716Z,1017.57
2017-10-16T07:01:13.545Z,1017.58
2017-10-16T07:02:22.380Z,1017.58
2017-10-16T07:03:31.226Z,1017.55
2017-10-16T07:04:40.741Z,1017.6
2017-10-16T07:05:49.571Z,1017.62
2017-10-16T07:06:58.410Z,1017.59
2017-10-16T07:08:07.247Z,1017.64
2017-10-16T07:09:16.083Z,1017.65
2017-10-16T07:10:24.919Z,1017.7
2017-10-16T07:11:33.758Z,1017.65
2017-10-16T07:12:42.595Z,1017.65
2017-10-16T07:13:51.430Z,1017.67
2017-10-16T07:15:00.271Z,1017.68
2017-10-16T07:16:09.107Z,1017.65
2017-10-16T07:17:17.943Z,1017.7
2017-10-16T07:18:26.776Z,1017.76
2017-10-16T07:19:35.610Z,1017.75
2017-10-16T07:20:44.451Z,1017.74
2017-10-16T07:21:53.284Z,1017.76
2017-10-16T07:23:02.133Z,1017.74
2017-10-16T07:24:11.314Z,1017.81
2017-10-16T07:25:20.482Z,1017.76
2017-10-16T07:26:29.319Z,1017.77
2017-10-16T07:27:38.161Z,1017.78
2017-10-16T07:28:46.998Z,1017.83
2017-10-16T07:29:56.170Z,1017.84
2017-10-16T07:31:05.009Z,1017.89
2017-10-16T07:32:13.845Z,1017.88
2017-10-16T07:33:22.678Z,1017.85
2017-10-16T07:34:31.516Z,1017.88
2017-10-16T07:35:40.354Z,1017.95
2017-10-16T07:36:49.188Z,1017.91
2017-10-16T07:37:58.026Z,1017.95
2017-10-16T07:39:06.863Z,1017.92
2017-10-16T07:40:15.699Z,1017.91
2017-10-16T07:41:24.534Z,1017.92
2017-10-16T07:42:33.371Z,1017.94
2017-10-16T07:43:42.210Z,1018
2017-10-16T07:44:51.040Z,1018.01
2017-10-16T07:45:59.878Z,1017.96
2017-10-16T07:47:08.713Z,1017.94
2017-10-16T07:48:17.550Z,1017.96
2017-10-16T07:49:26.391Z,1017.96
2017-10-16T07:50:35.225Z,1017.93
2017-10-16T07:51:44.060Z,1017.94
2017-10-16T07:52:52.893Z,1017.95
2017-10-16T07:54:01.728Z,1017.93
2017-10-16T07:55:10.569Z,1017.93
2017-10-16T07:56:19.407Z,1017.95
2017-10-16T07:57:28.241Z,1017.97
2017-10-16T07:58:37.082Z,1017.98
2017-10-16T07:59:45.923Z,1018.01
2017-10-16T08:00:54.754Z,1017.99
2017-10-16T08:02:03.594Z,1018.01
2017-10-16T08:03:12.430Z,1018.02
2017-10-16T08:04:21.287Z,1018.04
2017-10-16T08:05:30.158Z,1018.05
2017-10-16T08:06:39.001Z,1018.04
2017-10-16T08:07:47.839Z,1018.04
2017-10-16T08:08:56.676Z,1018.04
2017-10-16T08:10:05.681Z,1018.04
2017-10-16T08:11:14.589Z,1018.06
2017-10-16T08:12:23.490Z,1018.05
2017-10-16T08:13:33.271Z,1018.06
2017-10-16T08:14:42.106Z,1018.07
2017-10-16T08:15:50.941Z,1018.07
2017-10-16T08:16:59.784Z,1018.09
2017-10-16T08:18:08.618Z,1018.11
2017-10-16T08:19:17.449Z,1018.07
2017-10-16T08:20:26.458Z,1018.1
2017-10-16T08:21:35.630Z,1018.1
2017-10-16T08:22:44.466Z,1018.08
2017-10-16T08:23:53.307Z,1018.15
2017-10-16T08:25:02.140Z,1018.15
2017-10-16T08:26:10.976Z,1018.16
2017-10-16T08:27:19.816Z,1018.19
2017-10-16T08:28:28.650Z,1018.16
2017-10-16T08:29:37.487Z,1018.15
2017-10-16T08:30:46.325Z,1018.14
2017-10-16T08:31:55.158Z,1018.22
2017-10-16T08:33:03.997Z,1018.21
2017-10-16T08:34:12.835Z,1018.23
2017-10-16T08:35:21.675Z,1018.21
2017-10-16T08:36:30.511Z,1018.17
2017-10-16T08:37:39.349Z,1018.15
2017-10-16T08:38:48.186Z,1018.15
2017-10-16T08:39:57.028Z,1018.17
2017-10-16T08:41:06.208Z,1018.14
2017-10-16T08:42:15.044Z,1018.12
2017-10-16T08:43:23.883Z,1018.11
2017-10-16T08:44:32.714Z,1018.15
2017-10-16T08:45:41.561Z,1018.12
2017-10-16T08:46:50.390Z,1018.14
2017-10-16T08:47:59.230Z,1018.08
2017-10-16T08:49:08.070Z,1018.14
2017-10-16T08:50:16.908Z,1018.12
2017-10-16T08:51:25.744Z,1018.13
2017-10-16T08:52:34.583Z,1018.12
2017-10-16T08:53:43.418Z,1018.1
2017-10-16T08:54:52.255Z,1018.06
2017-10-16T08:56:01.094Z,1018.06
2017-10-16T08:57:09.933Z,1018.1
2017-10-16T08:58:19.100Z,1018.14
2017-10-16T08:59:27.947Z,1018.14
2017-10-16T09:00:36.770Z,1018.11
2017-10-16T09:01:45.612Z,1018.15
2017-10-16T09:02:54.453Z,1018.15
2017-10-16T09:04:03.289Z,1018.23
2017-10-16T09:05:12.123Z,1018.19
2017-10-16T09:06:20.960Z,1018.18
2017-10-16T09:07:29.800Z,1018.18
2017-10-16T09:08:38.987Z,1018.18
2017-10-16T09:09:47.832Z,1018.18
2017-10-16T09:10:56.664Z,1018.2
2017-10-16T09:12:05.838Z,1018.23
2017-10-16T09:13:15.018Z,1018.21
2017-10-16T09:14:23.852Z,1018.25
2017-10-16T09:15:32.691Z,1018.22
2017-10-16T09:16:41.537Z,1018.24
2017-10-16T09:17:50.363Z,1018.19
2017-10-16T09:18:59.202Z,1018.18
2017-10-16T09:20:08.042Z,1018.16
2017-10-16T09:21:16.880Z,1018.17
2017-10-16T09:22:25.721Z,1018.24
2017-10-16T09:23:34.557Z,1018.24
2017-10-16T09:24:43.402Z,1018.17
2017-10-16T09:25:52.235Z,1018.1
2017-10-16T09:27:01.079Z,1018.2
2017-10-16T09:28:09.939Z,1018.23
2017-10-16T09:29:18.758Z,1018.24
2017-10-16T09:30:27.598Z,1018.21
2017-10-16T09:31:36.434Z,1018.25
2017-10-16T09:32:45.271Z,1018.19
2017-10-16T09:33:54.110Z,1018.19
2017-10-16T09:35:02.949Z,1018.15
2017-10-16T09:36:11.783Z,1018.13
2017-10-16T09:37:20.621Z,1018.12
2017-10-16T09:38:29.460Z,1018.15
2017-10-16T09:39:38.306Z,1018.18
2017-10-16T09:40:47.151Z,1018.15
2017-10-16T09:41:55.983Z,1018.13
2017-10-16T09:43:04.816Z,1018.1
2017-10-16T09:44:13.653Z,1018.1
2017-10-16T09:45:22.496Z,1018.17
2017-10-16T09:46:31.350Z,1018.17
2017-10-16T09:47:40.188Z,1018.17
2017-10-16T09:48:49.014Z,1018.16
2017-10-16T09:49:57.853Z,1018.15
2017-10-16T09:51:06.697Z,1018.19
2017-10-16T09:52:15.530Z,1018.19
2017-10-16T09:53:24.371Z,1018.16
2017-10-16T09:54:33.542Z,1018.2
2017-10-16T09:55:42.428Z,1018.19
2017-10-16T09:56:51.269Z,1018.23
2017-10-16T09:58:00.482Z,1018.26
2017-10-16T09:59:09.320Z,1018.2
2017-10-16T10:00:18.156Z,1018.2
2017-10-16T10:01:27.001Z,1018.15
2017-10-16T10:02:35.842Z,1018.09
2017-10-16T10:03:44.685Z,1018.08
2017-10-16T10:04:53.521Z,1018.1
2017-10-16T10:06:02.363Z,1018.08
2017-10-16T10:07:11.201Z,1018.11
2017-10-16T10:08:20.038Z,1018.07
2017-10-16T10:09:28.879Z,1018.05
2017-10-16T10:10:37.718Z,1018.05
2017-10-16T10:11:46.550Z,1018.03
2017-10-16T10:12:55.388Z,1018.07
2017-10-16T10:14:04.226Z,1018.09
2017-10-16T10:15:13.069Z,1018.09
2017-10-16T10:16:21.910Z,1018.1
2017-10-16T10:17:30.748Z,1018.1
2017-10-16T10:18:39.586Z,1018.11
2017-10-16T10:19:48.797Z,1018.09
2017-10-16T10:20:57.637Z,1018.06
2017-10-16T10:22:06.475Z,1018.09
2017-10-16T10:23:15.320Z,1018.08
2017-10-16T10:24:24.152Z,1018.09
2017-10-16T10:25:33.064Z,1018.13
2017-10-16T10:26:41.899Z,1018.16
2017-10-16T10:27:50.739Z,1018.19
2017-10-16T10:28:59.579Z,1018.2
2017-10-16T10:30:08.428Z,1018.17
2017-10-16T10:31:17.259Z,1018.16
2017-10-16T10:32:26.169Z,1018.22
2017-10-16T10:33:35.025Z,1018.23
2017-10-16T10:34:43.906Z,1018.24
2017-10-16T10:35:52.745Z,1018.23
2017-10-16T10:37:01.635Z,1018.19
2017-10-16T10:38:10.825Z,1018.22
2017-10-16T10:39:19.666Z,1018.24
2017-10-16T10:40:28.534Z,1018.23
2017-10-16T10:41:37.742Z,1018.23
2017-10-16T10:42:46.580Z,1018.2
2017-10-16T10:43:55.416Z,1018.2
2017-10-16T10:45:04.254Z,1018.21
2017-10-16T10:46:13.098Z,1018.18
2017-10-16T10:47:21.939Z,1018.16
2017-10-16T10:48:30.779Z,1018.08
2017-10-16T10:49:39.620Z,1018.18
2017-10-16T10:50:48.801Z,1018.14
2017-10-16T10:51:57.639Z,1018.16
2017-10-16T10:53:06.879Z,1018.15
2017-10-16T10:54:15.720Z,1018.12
2017-10-16T10:55:24.558Z,1018.13
2017-10-16T10:56:33.412Z,1018.11
2017-10-16T10:57:42.251Z,1018.16
2017-10-16T10:58:51.096Z,1018.15
2017-10-16T10:59:59.944Z,1018.19
2017-10-16T11:01:08.785Z,1018.18
2017-10-16T11:02:17.626Z,1018.25
2017-10-16T11:03:26.467Z,1018.19
2017-10-16T11:04:35.306Z,1018.22
2017-10-16T11:05:44.164Z,1018.2
2017-10-16T11:06:52.987Z,1018.2
2017-10-16T11:08:01.827Z,1018.22
2017-10-16T11:09:10.669Z,1018.22
2017-10-16T11:10:19.917Z,1018.17
2017-10-16T11:11:28.758Z,1018.17
2017-10-16T11:12:37.932Z,1018.18
2017-10-16T11:13:46.776Z,1018.14
2017-10-16T11:14:55.713Z,1018.13
2017-10-16T11:16:04.682Z,1018.11
2017-10-16T11:17:13.540Z,1018.05
2017-10-16T11:18:22.549Z,1018.08
2017-10-16T11:19:31.396Z,1018.03
2017-10-16T11:20:40.574Z,1018.04
2017-10-16T11:21:49.410Z,1018.01
2017-10-16T11:22:58.250Z,1018.02
2017-10-16T11:24:07.091Z,1018.06
2017-10-16T11:25:15.936Z,1018.09
2017-10-16T11:26:24.773Z,1018.07
2017-10-16T11:27:33.614Z,1018.08
2017-10-16T11:28:42.456Z,1018
2017-10-16T11:29:51.294Z,1017.96
2017-10-16T11:31:00.140Z,1017.95
2017-10-16T11:32:09.332Z,1017.96
2017-10-16T11:33:18.202Z,1017.95
2017-10-16T11:34:27.047Z,1017.97
2017-10-16T11:35:35.886Z,1017.95
2017-10-16T11:36:44.728Z,1017.9
2017-10-16T11:37:53.614Z,1017.91
2017-10-16T11:39:02.837Z,1017.93
2017-10-16T11:40:11.675Z,1017.87
2017-10-16T11:41:20.523Z,1017.83
2017-10-16T11:42:29.366Z,1017.85
2017-10-16T11:43:38.540Z,1017.83
2017-10-16T11:44:47.382Z,1017.81
2017-10-16T11:45:56.231Z,1017.76
2017-10-16T11:47:05.068Z,1017.75
2017-10-16T11:48:13.917Z,1017.69
2017-10-16T11:49:22.753Z,1017.71
2017-10-16T11:50:31.600Z,1017.68
2017-10-16T11:51:40.441Z,1017.77
2017-10-16T11:52:49.296Z,1017.76
2017-10-16T11:53:58.162Z,1017.81
2017-10-16T11:55:06.987Z,1017.8
2017-10-16T11:56:15.825Z,1017.77
2017-10-16T11:57:24.682Z,1017.77
2017-10-16T11:58:33.528Z,1017.76
2017-10-16T11:59:42.716Z,1017.8
2017-10-16T12:00:51.558Z,1017.78
2017-10-16T12:02:00.401Z,1017.73
2017-10-16T12:03:09.246Z,1017.71
2017-10-16T12:04:18.087Z,1017.67
2017-10-16T12:05:26.934Z,1017.69
2017-10-16T12:06:35.794Z,1017.79
2017-10-16T12:07:44.638Z,1017.78
2017-10-16T12:08:53.477Z,1017.76
2017-10-16T12:10:02.395Z,1017.74
2017-10-16T12:11:11.256Z,1017.73
2017-10-16T12:12:20.090Z,1017.72
2017-10-16T12:13:28.937Z,1017.8
2017-10-16T12:14:37.785Z,1017.8
2017-10-16T12:15:46.626Z,1017.83
2017-10-16T12:16:55.800Z,1017.84
2017-10-16T12:18:04.653Z,1017.86
2017-10-16T12:19:13.486Z,1017.89
2017-10-16T12:20:22.333Z,1017.87
2017-10-16T12:21:31.514Z,1017.86
2017-10-16T12:22:40.364Z,1017.85
2017-10-16T12:23:49.213Z,1017.86
2017-10-16T12:24:58.053Z,1017.86
2017-10-16T12:26:07.240Z,1017.81
2017-10-16T12:27:16.081Z,1017.76
2017-10-16T12:28:24.925Z,1017.78
2017-10-16T12:29:33.767Z,1017.75
2017-10-16T12:30:42.782Z,1017.75
2017-10-16T12:31:51.624Z,1017.72
2017-10-16T12:33:00.462Z,1017.7
2017-10-16T12:34:09.303Z,1017.69
2017-10-16T12:35:18.145Z,1017.7
2017-10-16T12:36:26.998Z,1017.71
2017-10-16T12:37:35.952Z,1017.72
2017-10-16T12:38:44.788Z,1017.76
2017-10-16T12:39:53.635Z,1017.79
2017-10-16T12:41:02.591Z,1017.81
2017-10-16T12:42:12.089Z,1017.85
2017-10-16T12:43:20.936Z,1017.89
2017-10-16T12:44:29.776Z,1017.91
2017-10-16T12:45:38.614Z,1017.85
2017-10-16T12:46:47.459Z,1017.87
2017-10-16T12:47:56.297Z,1017.85
2017-10-16T12:49:05.139Z,1017.86
2017-10-16T12:50:13.981Z,1017.86
2017-10-16T12:51:22.825Z,1017.86
2017-10-16T12:52:31.680Z,1017.92
2017-10-16T12:53:40.533Z,1017.85
2017-10-16T12:54:49.381Z,1017.89
2017-10-16T12:55:58.246Z,1017.84
2017-10-16T12:57:07.116Z,1017.86
2017-10-16T12:58:15.978Z,1017.87
2017-10-16T12:59:24.859Z,1017.92
2017-10-16T13:00:33.741Z,1017.91
2017-10-16T13:01:42.658Z,1017.9
2017-10-16T13:02:51.523Z,1017.88
2017-10-16T13:04:00.388Z,1017.9
2017-10-16T13:05:09.260Z,1017.9
2017-10-16T13:06:18.144Z,1017.82
2017-10-16T13:07:27.026Z,1017.9
2017-10-16T13:08:35.875Z,1017.91
2017-10-16T13:09:44.718Z,1017.89
2017-10-16T13:10:53.557Z,1017.88
2017-10-16T13:12:02.402Z,1017.89
2017-10-16T13:13:11.237Z,1017.93
2017-10-16T13:14:20.253Z,1017.9
2017-10-16T13:15:29.422Z,1017.89
2017-10-16T13:16:38.649Z,1017.86
2017-10-16T13:17:47.491Z,1017.87
2017-10-16T13:18:56.368Z,1017.87
2017-10-16T13:20:05.208Z,1017.84
2017-10-16T13:21:14.053Z,1017.83
2017-10-16T13:22:22.902Z,1017.82
2017-10-16T13:23:31.743Z,1017.8
2017-10-16T13:24:40.583Z,1017.83
2017-10-16T13:25:49.425Z,1017.85
2017-10-16T13:26:58.264Z,1017.88
2017-10-16T13:28:07.102Z,1017.88
2017-10-16T13:29:15.944Z,1017.85
2017-10-16T13:30:24.781Z,1017.8
2017-10-16T13:31:33.625Z,1017.81
2017-10-16T13:32:42.463Z,1017.82
2017-10-16T13:33:51.307Z,1017.84
2017-10-16T13:35:00.147Z,1017.84
2017-10-16T13:36:08.989Z,1017.8
2017-10-16T13:37:17.837Z,1017.79
2017-10-16T13:38:26.674Z,1017.84
2017-10-16T13:39:35.521Z,1017.81
2017-10-16T13:40:44.357Z,1017.82
2017-10-16T13:41:53.198Z,1017.83
2017-10-16T13:43:02.048Z,1017.83
2017-10-16T13:44:10.887Z,1017.83
2017-10-16T13:45:19.727Z,1017.83
2017-10-16T13:46:28.569Z,1017.83
2017-10-16T13:47:37.406Z,1017.79
2017-10-16T13:48:46.245Z,1017.77
2017-10-16T13:49:55.093Z,1017.8
2017-10-16T13:51:03.933Z,1017.8
2017-10-16T13:52:12.766Z,1017.83
2017-10-16T13:53:21.610Z,1017.82
2017-10-16T13:54:30.448Z,1017.8